Terminal Aerodrome Forecast
Issued by NWS Sioux Falls, SD

Home | Current Version | Previous Version | Text Only | Print | Product List | Glossary On
Versions: 1 2 3 4 5 6 7 8 9 10 11 12 13 14 15 16 17 18 19 20 21 22 23 24 25 26
143
FTUS43 KFSD 201720
TAFSUX
TAF
KSUX 201720Z 2018/2118 18020G30KT P6SM SCT250
     FM210000 17019G29KT P6SM BKN100
     FM210800 17016G24KT P6SM VCTS OVC050CB
     FM211200 17014G22KT P6SM -SHRA OVC025
     FM211500 18014KT P6SM -SHRA OVC015
     FM211700 26014G22KT P6SM -SHRA OVC020=

USA.gov is the U.S. government's official web portal to all federal, state and local government web resources and services.